Time;durP1;ratioP1;P1;durP2;ratioP2;P2;SDS_P1;SDS_P2;PMS_P1;PMS_P2;Temp;Humidity;BMP_temperature;BMP_pressure;BME280_temperature;BME280_humidity;BME280_pressure;Samples;Min_cycle;Max_cycle;Signal;HPM_P1;HPM_P2
2022/03/28 00:00:41;;;;;;;3.57;2.53;;;16.90;60.30;;;;;;5222817;28;20339;-70
2022/03/28 00:03:34;;;;;;;3.30;2.10;;;16.90;60.20;;;;;;5202924;28;20697;-70
2022/03/28 00:06:26;;;;;;;3.50;2.47;;;16.90;60.30;;;;;;5202357;28;20259;-70
2022/03/28 00:09:20;;;;;;;2.40;1.90;;;16.90;60.30;;;;;;5202414;28;20284;-70
2022/03/28 00:12:12;;;;;;;2.20;1.70;;;17.00;60.40;;;;;;5205671;28;20291;-69
2022/03/28 00:15:05;;;;;;;3.50;2.17;;;17.00;60.30;;;;;;5220468;28;20270;-68
2022/03/28 00:17:58;;;;;;;1.90;1.57;;;16.90;60.30;;;;;;5220958;28;20298;-70
2022/03/28 00:20:53;;;;;;;2.63;1.80;;;17.00;60.40;;;;;;5223476;28;20224;-70
2022/03/28 00:23:45;;;;;;;2.17;1.67;;;17.00;60.30;;;;;;5229376;28;20215;-68
2022/03/28 00:26:38;;;;;;;3.00;2.00;;;17.00;60.30;;;;;;5239240;28;20257;-70
2022/03/28 00:29:30;;;;;;;2.63;2.00;;;17.00;60.30;;;;;;5240326;28;20246;-70
2022/03/28 00:32:22;;;;;;;2.97;1.97;;;16.90;60.20;;;;;;5223151;28;20221;-70
2022/03/28 00:35:15;;;;;;;3.47;1.80;;;16.90;60.30;;;;;;5223512;28;20209;-70
2022/03/28 00:38:07;;;;;;;2.23;1.77;;;17.00;60.20;;;;;;5223016;28;20207;-70
2022/03/28 00:40:59;;;;;;;2.20;1.87;;;17.00;60.30;;;;;;5223106;28;20219;-69
2022/03/28 00:43:58;;;;;;;1.97;1.40;;;16.90;60.30;;;;;;5222493;28;20204;-71
2022/03/28 00:46:50;;;;;;;2.00;1.50;;;16.90;60.20;;;;;;5221750;28;20194;-71
2022/03/28 00:49:42;;;;;;;1.70;1.30;;;16.90;60.90;;;;;;5221968;28;20271;-72
2022/03/28 00:52:35;;;;;;;2.13;1.50;;;16.90;60.30;;;;;;5223024;28;20259;-71
2022/03/28 00:55:28;;;;;;;2.83;1.60;;;16.90;60.30;;;;;;5223077;28;20208;-71
2022/03/28 00:58:20;;;;;;;2.50;1.73;;;16.90;60.20;;;;;;5222596;28;20209;-72
2022/03/28 01:01:14;;;;;;;2.80;1.83;;;16.90;60.80;;;;;;5222210;28;20247;-71
2022/03/28 01:04:08;;;;;;;1.40;1.30;;;17.00;60.30;;;;;;5223292;28;20197;-71
2022/03/28 01:07:00;;;;;;;2.13;1.47;;;16.90;60.20;;;;;;5221689;28;20201;-71
2022/03/28 01:09:55;;;;;;;2.10;1.47;;;16.90;60.20;;;;;;5231151;28;20276;-71
2022/03/28 01:12:47;;;;;;;1.60;1.50;;;16.90;60.20;;;;;;5237740;28;20293;-71
2022/03/28 01:15:39;;;;;;;1.70;1.40;;;16.90;60.20;;;;;;5221680;28;20927;-71
2022/03/28 01:18:33;;;;;;;1.47;1.30;;;17.00;60.30;;;;;;5223174;28;20342;-71
2022/03/28 01:21:27;;;;;;;1.83;1.50;;;16.90;60.30;;;;;;5221988;28;20330;-71
2022/03/28 01:24:19;;;;;;;1.60;1.30;;;16.90;60.20;;;;;;5222225;28;20323;-71
2022/03/28 01:27:13;;;;;;;1.83;1.47;;;16.90;60.20;;;;;;5221571;28;20193;-71
2022/03/28 01:30:06;;;;;;;1.87;1.40;;;16.90;60.20;;;;;;5220960;28;20193;-71
2022/03/28 01:32:59;;;;;;;2.00;1.40;;;17.00;60.20;;;;;;5221111;28;20213;-71
2022/03/28 01:35:52;;;;;;;1.63;1.40;;;17.00;60.20;;;;;;5222061;28;20239;-71
2022/03/28 01:38:46;;;;;;;1.97;1.70;;;16.90;60.10;;;;;;5222242;28;20728;-71
2022/03/28 01:41:38;;;;;;;1.73;1.47;;;17.00;60.20;;;;;;5220581;28;20217;-71
2022/03/28 01:44:30;;;;;;;2.13;1.50;;;16.90;60.20;;;;;;5217343;28;20280;-71
2022/03/28 01:47:22;;;;;;;1.57;1.20;;;16.90;60.20;;;;;;5215074;28;20193;-71
2022/03/28 01:50:15;;;;;;;3.27;1.67;;;16.90;60.20;;;;;;5221100;28;20300;-71
2022/03/28 01:53:08;;;;;;;1.50;1.40;;;17.00;60.30;;;;;;5220558;28;20344;-71
2022/03/28 01:56:01;;;;;;;1.60;1.50;;;16.90;60.20;;;;;;5220951;28;20193;-71
2022/03/28 01:58:54;;;;;;;2.10;1.50;;;16.90;60.20;;;;;;5222077;28;20209;-72
2022/03/28 02:01:46;;;;;;;1.40;1.30;;;16.90;60.20;;;;;;5224867;28;20706;-71
2022/03/28 02:04:38;;;;;;;1.73;1.57;;;17.00;60.20;;;;;;5225856;28;20211;-71
2022/03/28 02:07:30;;;;;;;1.83;1.30;;;16.90;60.20;;;;;;5225491;28;20250;-71
2022/03/28 02:10:23;;;;;;;2.53;1.30;;;16.90;60.20;;;;;;5223807;28;20314;-71
2022/03/28 02:13:16;;;;;;;1.67;1.17;;;16.90;60.20;;;;;;5219536;28;20227;-72
2022/03/28 02:16:10;;;;;;;1.77;1.20;;;17.00;60.30;;;;;;5225083;28;20201;-71
2022/03/28 02:19:02;;;;;;;1.27;1.17;;;16.90;60.20;;;;;;5224810;28;20201;-71
2022/03/28 02:21:54;;;;;;;1.40;1.23;;;16.90;60.20;;;;;;5224368;28;20622;-71
2022/03/28 02:24:46;;;;;;;1.83;1.43;;;16.90;60.30;;;;;;5225194;28;20205;-71
2022/03/28 02:27:38;;;;;;;1.03;0.93;;;16.90;60.20;;;;;;5223593;28;20193;-71
2022/03/28 02:30:32;;;;;;;1.20;1.10;;;16.90;60.20;;;;;;5225618;28;20850;-71
2022/03/28 02:33:24;;;;;;;1.10;1.00;;;16.90;60.30;;;;;;5224640;28;20201;-71
2022/03/28 02:36:16;;;;;;;1.30;1.00;;;16.90;60.20;;;;;;5225466;28;20805;-71
2022/03/28 02:39:10;;;;;;;1.30;1.17;;;16.90;60.20;;;;;;5225499;28;20197;-71
2022/03/28 02:42:03;;;;;;;1.30;1.20;;;16.90;60.20;;;;;;5224686;28;20212;-72
2022/03/28 02:44:56;;;;;;;1.37;1.10;;;16.90;60.20;;;;;;5225152;28;20734;-71
2022/03/28 02:47:50;;;;;;;1.20;1.10;;;16.90;60.20;;;;;;5221939;28;20224;-71
2022/03/28 02:50:42;;;;;;;1.20;1.10;;;16.90;60.20;;;;;;5224322;28;20204;-71
2022/03/28 02:53:34;;;;;;;1.20;1.10;;;16.90;60.70;;;;;;5204667;28;20209;-72
2022/03/28 02:56:26;;;;;;;1.13;1.03;;;16.90;60.10;;;;;;5205763;28;20283;-72
2022/03/28 02:59:18;;;;;;;1.03;0.93;;;16.90;60.10;;;;;;5224304;28;20197;-71
2022/03/28 03:02:10;;;;;;;1.23;1.10;;;16.90;60.20;;;;;;5224318;28;20998;-71
2022/03/28 03:05:05;;;;;;;1.27;1.17;;;16.90;60.20;;;;;;5224616;28;20244;-71
2022/03/28 03:07:57;;;;;;;1.03;0.93;;;16.90;60.20;;;;;;5223497;28;20205;-71
2022/03/28 03:10:49;;;;;;;1.30;1.10;;;16.90;60.10;;;;;;5222764;28;20185;-71
2022/03/28 03:13:41;;;;;;;0.90;0.77;;;16.90;60.20;;;;;;5221988;28;20286;-71
2022/03/28 03:16:33;;;;;;;1.10;0.87;;;16.90;60.20;;;;;;5224628;28;20193;-72
2022/03/28 03:19:26;;;;;;;1.00;0.90;;;16.90;60.10;;;;;;5223987;28;20204;-71
2022/03/28 03:22:19;;;;;;;1.10;1.00;;;16.90;60.10;;;;;;5223171;28;20724;-72
2022/03/28 03:25:11;;;;;;;1.27;0.93;;;16.90;60.10;;;;;;5223201;28;20758;-71
2022/03/28 03:28:04;;;;;;;0.90;0.70;;;16.90;60.10;;;;;;5222968;28;20197;-71
2022/03/28 03:30:56;;;;;;;1.00;0.90;;;16.90;60.20;;;;;;5224266;28;20189;-71
2022/03/28 03:33:48;;;;;;;1.23;1.00;;;16.90;60.10;;;;;;5223450;28;20204;-71
2022/03/28 03:36:40;;;;;;;1.43;1.07;;;16.90;60.10;;;;;;5223723;28;20197;-71
2022/03/28 03:39:35;;;;;;;0.90;0.80;;;16.90;60.00;;;;;;5223612;28;20745;-73
2022/03/28 03:42:27;;;;;;;1.07;0.97;;;16.90;60.00;;;;;;5223626;28;20359;-73
2022/03/28 03:45:19;;;;;;;1.13;1.03;;;16.90;60.00;;;;;;5224075;28;20209;-72
2022/03/28 03:48:11;;;;;;;1.20;1.10;;;16.90;59.90;;;;;;5223079;28;20304;-70
2022/03/28 03:51:03;;;;;;;0.90;0.90;;;16.90;59.90;;;;;;5222780;28;20238;-70
2022/03/28 03:53:55;;;;;;;0.93;0.83;;;16.90;59.80;;;;;;5222372;28;20276;-71
2022/03/28 03:56:49;;;;;;;0.90;0.90;;;16.90;59.90;;;;;;5218468;28;21092;-71
2022/03/28 03:59:41;;;;;;;1.80;0.90;;;17.00;59.90;;;;;;5240540;22;20233;-67
2022/03/28 04:02:33;;;;;;;0.80;0.70;;;16.90;59.80;;;;;;5242897;28;20208;-66
2022/03/28 04:05:25;;;;;;;0.80;0.80;;;17.00;59.80;;;;;;5224465;28;20204;-67
2022/03/28 04:08:18;;;;;;;0.77;0.73;;;16.90;59.80;;;;;;5231092;28;21029;-67
2022/03/28 04:11:10;;;;;;;0.93;0.80;;;17.00;59.80;;;;;;5209271;28;20588;-66
2022/03/28 04:14:03;;;;;;;1.13;0.70;;;17.00;59.80;;;;;;5224219;28;20189;-67
2022/03/28 04:16:55;;;;;;;0.93;0.77;;;17.00;59.90;;;;;;5224278;28;20274;-67
2022/03/28 04:19:47;;;;;;;0.97;0.90;;;17.00;59.90;;;;;;5224072;28;20221;-67
2022/03/28 04:22:40;;;;;;;1.00;0.70;;;17.00;59.90;;;;;;5223890;28;20815;-67
2022/03/28 04:25:32;;;;;;;0.90;0.77;;;17.00;59.80;;;;;;5223886;28;20710;-67
2022/03/28 04:28:25;;;;;;;0.70;0.70;;;17.00;59.80;;;;;;5223721;28;20224;-66
2022/03/28 04:31:18;;;;;;;0.93;0.80;;;17.00;59.80;;;;;;5222589;28;20194;-67
2022/03/28 04:34:10;;;;;;;0.70;0.70;;;17.00;59.80;;;;;;5209122;28;20830;-67
2022/03/28 04:37:03;;;;;;;0.80;0.80;;;17.00;59.80;;;;;;5223315;28;20189;-67
2022/03/28 04:39:55;;;;;;;0.67;0.67;;;17.00;59.80;;;;;;5224388;28;20221;-67
2022/03/28 04:42:48;;;;;;;0.73;0.70;;;17.00;59.80;;;;;;5223406;28;20220;-67
2022/03/28 04:45:40;;;;;;;1.00;0.67;;;17.00;59.80;;;;;;5223965;28;20205;-67
2022/03/28 04:48:34;;;;;;;0.70;0.70;;;17.00;59.80;;;;;;5223090;28;20358;-67
2022/03/28 04:51:26;;;;;;;0.60;0.60;;;17.00;59.80;;;;;;5218196;28;20270;-67
2022/03/28 04:54:18;;;;;;;0.70;0.70;;;17.00;59.70;;;;;;5214394;28;20694;-67
2022/03/28 04:57:10;;;;;;;0.80;0.80;;;17.10;59.70;;;;;;5215929;28;20250;-67
2022/03/28 05:00:02;;;;;;;0.67;0.67;;;17.00;59.70;;;;;;5221707;28;20362;-67
2022/03/28 05:02:55;;;;;;;1.23;0.90;;;17.00;59.70;;;;;;5219720;28;20767;-66
2022/03/28 05:05:48;;;;;;;0.63;0.63;;;17.00;59.70;;;;;;5222307;28;20194;-66
2022/03/28 05:08:40;;;;;;;0.80;0.73;;;17.10;60.30;;;;;;5223675;28;20209;-66
2022/03/28 05:11:32;;;;;;;0.87;0.87;;;17.00;59.70;;;;;;5223750;28;20198;-67
2022/03/28 05:14:25;;;;;;;2.00;0.80;;;17.00;59.70;;;;;;5223843;28;20205;-66
2022/03/28 05:17:20;;;;;;;0.77;0.77;;;17.10;59.70;;;;;;5221552;28;20193;-67
2022/03/28 05:20:13;;;;;;;0.63;0.63;;;17.00;59.70;;;;;;5220981;28;20228;-66
2022/03/28 05:23:06;;;;;;;0.80;0.80;;;17.00;59.70;;;;;;5222781;28;20204;-67
2022/03/28 05:25:58;;;;;;;0.93;0.80;;;17.00;59.70;;;;;;5222476;28;20201;-67
2022/03/28 05:28:50;;;;;;;1.23;0.87;;;17.10;59.70;;;;;;5223549;28;20750;-67
2022/03/28 05:31:42;;;;;;;1.70;0.70;;;17.00;59.70;;;;;;5222015;28;20185;-67
2022/03/28 05:34:35;;;;;;;0.70;0.70;;;17.00;59.60;;;;;;5221496;28;20600;-67
2022/03/28 05:37:27;;;;;;;0.80;0.80;;;17.10;59.70;;;;;;5222461;28;20201;-66
2022/03/28 05:40:21;;;;;;;0.53;0.53;;;17.10;59.70;;;;;;5221764;28;20692;-67
2022/03/28 05:43:13;;;;;;;0.80;0.60;;;17.00;59.70;;;;;;5221991;28;20211;-67
2022/03/28 05:46:06;;;;;;;0.80;0.70;;;17.00;59.70;;;;;;5222097;28;20207;-67
2022/03/28 05:48:58;;;;;;;0.60;0.60;;;17.10;59.70;;;;;;5221559;28;20217;-67
2022/03/28 05:51:51;;;;;;;1.00;0.90;;;17.10;59.70;;;;;;5221037;28;20204;-67
2022/03/28 05:54:43;;;;;;;1.40;0.80;;;17.00;59.70;;;;;;5221951;28;20275;-67
2022/03/28 05:57:37;;;;;;;1.20;0.90;;;17.00;59.70;;;;;;5222073;28;20204;-65
2022/03/28 06:00:29;;;;;;;1.17;0.57;;;17.00;59.60;;;;;;5221908;28;20232;-66
2022/03/28 06:03:21;;;;;;;1.07;0.70;;;17.00;59.60;;;;;;5221317;28;20659;-64
2022/03/28 06:06:13;;;;;;;0.50;0.50;;;17.00;59.70;;;;;;5222282;28;20205;-65
2022/03/28 06:09:06;;;;;;;0.60;0.60;;;17.00;59.90;;;;;;5221838;28;20215;-67
2022/03/28 06:11:58;;;;;;;0.60;0.57;;;17.10;59.90;;;;;;5221927;28;20228;-65
2022/03/28 06:14:51;;;;;;;0.60;0.60;;;17.10;59.90;;;;;;5220780;28;20744;-66
2022/03/28 06:17:43;;;;;;;0.63;0.60;;;17.10;59.90;;;;;;5222394;28;20193;-66
2022/03/28 06:20:36;;;;;;;0.77;0.77;;;17.10;59.90;;;;;;5221761;28;20239;-66
2022/03/28 06:23:28;;;;;;;0.47;0.47;;;17.10;59.90;;;;;;5221758;28;20197;-65
2022/03/28 06:26:20;;;;;;;1.00;0.70;;;17.10;59.90;;;;;;5221208;28;20579;-65
2022/03/28 06:29:12;;;;;;;0.80;0.60;;;17.20;60.00;;;;;;5222776;28;20213;-66
2022/03/28 06:32:13;;;;;;;0.60;0.50;;;17.20;60.00;;;;;;5221580;28;20200;-66
2022/03/28 06:35:07;;;;;;;0.83;0.50;;;17.20;60.00;;;;;;5208000;28;20196;-66
2022/03/28 06:38:00;;;;;;;1.37;0.60;;;17.10;60.00;;;;;;5222219;28;20576;-65
2022/03/28 06:40:52;;;;;;;0.60;0.60;;;17.20;60.10;;;;;;5222127;28;20225;-64
2022/03/28 06:43:44;;;;;;;1.33;0.70;;;17.20;60.10;;;;;;5213508;28;20269;-64
2022/03/28 06:46:36;;;;;;;0.53;0.53;;;17.20;60.10;;;;;;5204869;28;20201;-65
2022/03/28 06:49:30;;;;;;;0.67;0.50;;;17.20;60.20;;;;;;5204942;28;20755;-65
2022/03/28 06:52:22;;;;;;;0.70;0.50;;;17.20;60.20;;;;;;5219627;28;20211;-65
2022/03/28 06:55:14;;;;;;;0.60;0.60;;;17.20;60.30;;;;;;5225644;28;20199;-65
2022/03/28 06:58:06;;;;;;;1.10;0.70;;;17.30;60.30;;;;;;5224973;28;20200;-65
2022/03/28 07:00:58;;;;;;;0.63;0.40;;;17.30;60.30;;;;;;5224799;28;20217;-65
2022/03/28 07:03:50;;;;;;;0.53;0.53;;;17.20;60.30;;;;;;5225771;28;20197;-64
2022/03/28 07:06:44;;;;;;;1.10;0.60;;;17.20;60.30;;;;;;5225613;28;20567;-65
2022/03/28 07:09:36;;;;;;;0.67;0.67;;;17.20;60.30;;;;;;5225194;28;20217;-65
2022/03/28 07:12:28;;;;;;;0.80;0.77;;;17.20;60.30;;;;;;5223391;28;20650;-64
2022/03/28 07:15:20;;;;;;;0.50;0.40;;;17.30;60.40;;;;;;5225437;28;20196;-65
2022/03/28 07:18:12;;;;;;;0.50;0.37;;;17.30;60.40;;;;;;5224431;28;20199;-64
2022/03/28 07:21:04;;;;;;;0.60;0.60;;;17.30;60.40;;;;;;5223385;28;20248;-64
2022/03/28 07:23:59;;;;;;;0.93;0.60;;;17.30;60.40;;;;;;5225732;28;20201;-65
2022/03/28 07:26:53;;;;;;;1.50;0.47;;;17.30;60.40;;;;;;5225549;28;20244;-65
2022/03/28 07:29:45;;;;;;;0.70;0.47;;;17.30;60.40;;;;;;5225738;28;20213;-65
2022/03/28 07:32:39;;;;;;;1.50;0.60;;;17.30;60.40;;;;;;5222721;28;20837;-64
2022/03/28 07:35:32;;;;;;;0.70;0.53;;;17.30;60.20;;;;;;5220469;28;20448;-64
2022/03/28 07:38:24;;;;;;;0.50;0.50;;;17.30;60.00;;;;;;5223903;28;21879;-64
2022/03/28 07:41:18;;;;;;;0.63;0.63;;;17.40;60.10;;;;;;5224045;28;20692;-64
2022/03/28 07:44:10;;;;;;;9.27;4.23;;;17.40;60.00;;;;;;5217036;28;20206;-64
2022/03/28 07:47:03;;;;;;;29.30;13.17;;;17.30;60.10;;;;;;5203788;28;20197;-64
2022/03/28 07:49:57;;;;;;;19.47;9.97;;;17.30;60.10;;;;;;5206226;28;20223;-64
2022/03/28 07:52:50;;;;;;;10.33;5.10;;;17.40;60.20;;;;;;5221091;28;20197;-64
2022/03/28 07:55:43;;;;;;;12.23;5.43;;;17.40;60.20;;;;;;5206570;28;20222;-63
2022/03/28 07:58:36;;;;;;;71.83;31.13;;;17.40;60.10;;;;;;5216739;28;20540;-64
2022/03/28 08:01:28;;;;;;;314.93;128.57;;;17.40;60.10;;;;;;5223401;28;20692;-65
2022/03/28 08:04:21;;;;;;;187.63;73.37;;;17.40;60.00;;;;;;5223550;28;20204;-64
2022/03/28 08:07:13;;;;;;;170.30;68.10;;;17.40;60.10;;;;;;5225136;28;20596;-64
2022/03/28 08:10:09;;;;;;;123.53;49.67;;;17.40;60.20;;;;;;5223282;28;20217;-64
2022/03/28 08:13:01;;;;;;;56.73;24.60;;;17.40;60.20;;;;;;5225039;28;20704;-64
2022/03/28 08:15:55;;;;;;;52.90;20.60;;;17.40;59.50;;;;;;5225630;28;20664;-63
2022/03/28 08:18:47;;;;;;;44.30;18.87;;;17.40;59.40;;;;;;5224110;28;20225;-63
2022/03/28 08:21:39;;;;;;;40.40;15.60;;;17.40;59.50;;;;;;5223099;28;20695;-64
2022/03/28 08:24:31;;;;;;;74.18;34.45;;;17.40;59.60;;;;;;5224494;28;20420;-63
2022/03/28 08:27:23;;;;;;;67.53;28.17;;;17.30;59.80;;;;;;5224256;28;20680;-65
2022/03/28 08:30:16;;;;;;;159.50;62.93;;;17.30;60.00;;;;;;5203353;28;20213;-63
2022/03/28 08:33:11;;;;;;;137.60;53.73;;;17.30;60.00;;;;;;5223509;28;20197;-63
2022/03/28 08:36:03;;;;;;;104.43;42.17;;;17.30;60.00;;;;;;5223567;28;20327;-63
2022/03/28 08:38:55;;;;;;;106.93;42.80;;;17.30;60.10;;;;;;5224530;28;20703;-64
2022/03/28 08:41:49;;;;;;;106.63;40.90;;;17.30;60.10;;;;;;5222925;28;20572;-64
2022/03/28 08:44:41;;;;;;;95.53;36.90;;;17.40;60.30;;;;;;5223015;28;20204;-63
2022/03/28 08:47:35;;;;;;;97.87;36.40;;;17.40;60.20;;;;;;5222290;28;20359;-65
2022/03/28 08:50:28;;;;;;;67.87;29.83;;;17.30;60.10;;;;;;5217359;28;20216;-65
2022/03/28 08:53:20;;;;;;;65.03;27.80;;;17.40;60.20;;;;;;5223531;28;20253;-65
2022/03/28 08:56:13;;;;;;;55.17;20.87;;;17.30;60.10;;;;;;5223465;28;20197;-64
2022/03/28 08:59:05;;;;;;;55.87;23.43;;;17.30;60.20;;;;;;5223303;28;20221;-65
2022/03/28 09:01:57;;;;;;;47.97;22.07;;;17.30;60.20;;;;;;5223192;28;20270;-65
2022/03/28 09:04:55;;;;;;;45.97;18.77;;;17.30;60.10;;;;;;5223611;28;20220;-66
2022/03/28 09:07:48;;;;;;;41.07;20.03;;;17.30;60.20;;;;;;5221445;28;20611;-66
2022/03/28 09:10:46;;;;;;;45.40;18.57;;;17.30;60.10;;;;;;5222976;28;20279;-65
2022/03/28 09:13:44;;;;;;;37.17;17.57;;;17.30;60.20;;;;;;5223186;28;20727;-66
2022/03/28 09:16:36;;;;;;;40.27;16.67;;;17.30;60.20;;;;;;5223771;28;20220;-65
2022/03/28 09:19:46;;;;;;;34.33;15.83;;;17.30;60.30;;;;;;5217003;28;20217;-65
2022/03/28 09:22:41;;;;;;;30.80;14.60;;;17.30;60.30;;;;;;5202236;28;20278;-65
2022/03/28 09:25:50;;;;;;;33.87;15.07;;;17.30;60.40;;;;;;5202080;28;20736;-64
2022/03/28 09:28:48;;;;;;;29.87;13.60;;;17.30;60.40;;;;;;5210719;28;20237;-65
2022/03/28 09:31:42;;;;;;;25.00;11.93;;;17.30;60.40;;;;;;5214565;28;20201;-65
2022/03/28 09:34:34;;;;;;;23.83;11.73;;;17.30;60.40;;;;;;5203475;28;20693;-65
2022/03/28 09:37:27;;;;;;;27.10;12.10;;;17.30;60.40;;;;;;5202938;28;20266;-64
2022/03/28 09:40:26;;;;;;;22.97;10.63;;;17.40;60.50;;;;;;5202727;28;20234;-64
2022/03/28 09:43:21;;;;;;;22.30;10.93;;;17.40;60.50;;;;;;5209140;28;20235;-64
2022/03/28 09:46:25;;;;;;;22.93;10.57;;;17.30;60.40;;;;;;5223873;28;20591;-64
2022/03/28 09:49:25;;;;;;;21.23;9.47;;;17.40;60.50;;;;;;5223276;28;20945;-65
2022/03/28 09:52:20;;;;;;;19.23;9.63;;;17.40;60.50;;;;;;5202551;28;20703;-66
2022/03/28 09:55:12;;;;;;;22.00;10.07;;;17.40;60.60;;;;;;5220058;28;20288;-64
2022/03/28 09:58:04;;;;;;;21.90;9.43;;;17.40;60.60;;;;;;5223286;28;20680;-65
2022/03/28 10:00:57;;;;;;;17.63;8.80;;;17.40;60.60;;;;;;5223216;28;20323;-65
2022/03/28 10:03:52;;;;;;;15.50;7.63;;;17.40;60.70;;;;;;5268035;22;20315;-66
2022/03/28 10:06:44;;;;;;;18.10;7.70;;;17.40;60.70;;;;;;5262511;28;20199;-66
2022/03/28 10:09:37;;;;;;;18.47;8.43;;;17.40;60.70;;;;;;5264577;28;20198;-66
2022/03/28 10:12:30;;;;;;;13.37;7.47;;;17.40;60.80;;;;;;5259976;28;20187;-65
2022/03/28 10:15:22;;;;;;;17.80;7.50;;;17.40;60.80;;;;;;5223218;28;20850;-65
2022/03/28 10:18:15;;;;;;;16.47;7.00;;;17.40;60.90;;;;;;5222300;28;20239;-66
2022/03/28 10:21:15;;;;;;;18.70;7.60;;;17.40;60.90;;;;;;5225041;28;20287;-67
2022/03/28 10:24:12;;;;;;;17.67;7.87;;;17.40;60.90;;;;;;5232788;28;20247;-66
2022/03/28 10:27:05;;;;;;;14.80;6.73;;;17.40;60.90;;;;;;5246647;28;20197;-66
2022/03/28 10:30:11;;;;;;;9.87;5.40;;;17.40;60.90;;;;;;5227498;28;20254;-66
2022/03/28 10:33:11;;;;;;;14.23;5.77;;;17.40;60.90;;;;;;5227222;28;20217;-66
2022/03/28 10:36:19;;;;;;;11.77;5.67;;;17.40;61.00;;;;;;5226635;28;20327;-66
2022/03/28 10:39:31;;;;;;;12.87;5.73;;;17.50;61.00;;;;;;5240348;28;20192;-66
2022/03/28 10:42:25;;;;;;;12.80;5.90;;;17.40;61.00;;;;;;5245551;28;20228;-66
2022/03/28 10:45:19;;;;;;;13.87;5.60;;;17.40;61.00;;;;;;5226790;28;20200;-69
2022/03/28 10:48:12;;;;;;;11.27;5.13;;;17.40;61.10;;;;;;5225394;28;20201;-69
2022/03/28 10:51:08;;;;;;;10.23;5.40;;;17.40;61.10;;;;;;5226517;28;20205;-68
2022/03/28 10:54:03;;;;;;;9.93;4.90;;;17.50;61.20;;;;;;5246589;28;20683;-69
2022/03/28 10:56:59;;;;;;;11.77;5.90;;;17.50;61.10;;;;;;5246122;28;20200;-69
2022/03/28 11:00:02;;;;;;;11.67;5.17;;;17.40;61.10;;;;;;5245858;28;20303;-68
2022/03/28 11:02:54;;;;;;;8.70;4.47;;;17.40;61.10;;;;;;5245695;28;20220;-69
2022/03/28 11:05:55;;;;;;;8.37;4.33;;;17.50;61.20;;;;;;5246221;28;20203;-69
2022/03/28 11:09:01;;;;;;;11.13;4.90;;;17.50;61.20;;;;;;5246229;28;20571;-69
2022/03/28 11:11:58;;;;;;;8.63;4.47;;;17.50;61.20;;;;;;5245601;28;20192;-69
2022/03/28 11:14:58;;;;;;;7.57;4.10;;;17.50;61.20;;;;;;5246621;28;20196;-67
2022/03/28 11:17:57;;;;;;;8.13;4.13;;;17.50;60.90;;;;;;5244899;28;20196;-68
2022/03/28 11:20:52;;;;;;;7.53;4.00;;;17.40;60.30;;;;;;5245233;28;20277;-68
2022/03/28 11:23:44;;;;;;;5.93;3.07;;;17.40;60.30;;;;;;5246522;28;20213;-68
2022/03/28 11:26:39;;;;;;;6.90;3.70;;;17.40;60.00;;;;;;5244507;28;20188;-67
2022/03/28 11:29:31;;;;;;;5.27;3.33;;;17.40;59.30;;;;;;5232654;28;20200;-68
2022/03/28 11:32:23;;;;;;;5.60;3.17;;;17.40;59.50;;;;;;5223868;28;20239;-67
2022/03/28 11:35:17;;;;;;;6.70;3.37;;;17.40;59.30;;;;;;5225243;28;20226;-67
2022/03/28 11:38:10;;;;;;;6.10;3.07;;;17.40;60.20;;;;;;5249109;28;20263;-67
2022/03/28 11:41:03;;;;;;;4.90;2.77;;;17.40;60.30;;;;;;5260620;28;20590;-66
2022/03/28 11:43:58;;;;;;;5.10;2.90;;;17.40;60.30;;;;;;5260631;28;20687;-67
2022/03/28 11:46:55;;;;;;;6.77;2.50;;;17.50;60.30;;;;;;5246552;28;20196;-68
2022/03/28 11:49:55;;;;;;;6.17;2.60;;;17.50;60.20;;;;;;5242734;28;20200;-69
2022/03/28 11:52:50;;;;;;;5.57;2.53;;;17.50;60.20;;;;;;5225083;28;20266;-69
2022/03/28 11:55:51;;;;;;;4.23;2.40;;;17.50;60.20;;;;;;5224256;28;20205;-69
2022/03/28 11:58:43;;;;;;;5.63;1.97;;;17.50;60.20;;;;;;5225157;28;20245;-69
2022/03/28 12:01:37;;;;;;;2.93;1.77;;;17.50;60.30;;;;;;5223598;28;20193;-69
2022/03/28 12:04:29;;;;;;;4.50;2.03;;;17.50;60.30;;;;;;5239381;28;20390;-69
2022/03/28 12:07:21;;;;;;;3.47;1.83;;;17.50;60.30;;;;;;5245635;28;20261;-70
2022/03/28 12:10:13;;;;;;;3.97;1.73;;;17.50;60.30;;;;;;5245682;28;20567;-69
2022/03/28 12:13:07;;;;;;;2.90;1.70;;;17.50;60.30;;;;;;5251635;28;20216;-70
2022/03/28 12:15:59;;;;;;;3.40;2.00;;;17.50;60.30;;;;;;5243807;28;20334;-68
2022/03/28 12:18:58;;;;;;;3.17;1.90;;;17.50;60.20;;;;;;5244290;28;20196;-69
2022/03/28 12:21:52;;;;;;;3.03;1.67;;;17.50;60.80;;;;;;5245093;28;20717;-69
2022/03/28 12:24:51;;;;;;;2.90;1.53;;;17.50;60.30;;;;;;5244944;28;20209;-68
2022/03/28 12:27:43;;;;;;;2.23;1.40;;;17.50;60.20;;;;;;5245300;28;20204;-68
2022/03/28 12:30:40;;;;;;;2.87;1.60;;;17.50;60.20;;;;;;5244361;28;20649;-68
2022/03/28 12:33:33;;;;;;;3.47;1.57;;;17.50;60.20;;;;;;5243883;28;20690;-70
2022/03/28 12:36:30;;;;;;;2.60;1.53;;;17.50;60.30;;;;;;5244100;28;20693;-69
2022/03/28 12:39:22;;;;;;;2.50;1.30;;;17.50;60.30;;;;;;5223859;28;20208;-69
2022/03/28 12:42:25;;;;;;;3.30;1.40;;;17.50;60.20;;;;;;5241219;28;20200;-68
2022/03/28 12:45:18;;;;;;;2.30;1.37;;;17.50;60.20;;;;;;5247486;28;20200;-69
2022/03/28 12:48:11;;;;;;;2.77;1.30;;;17.50;60.30;;;;;;5244368;28;20200;-69
2022/03/28 12:51:05;;;;;;;4.07;1.40;;;17.50;60.30;;;;;;5245160;28;20338;-67
2022/03/28 12:54:06;;;;;;;2.20;1.23;;;17.50;60.30;;;;;;5244147;28;20247;-69
2022/03/28 12:56:59;;;;;;;1.83;1.47;;;17.50;60.30;;;;;;5243205;28;20689;-69
2022/03/28 12:59:53;;;;;;;1.63;1.13;;;17.50;60.30;;;;;;5244341;28;20193;-69
2022/03/28 13:02:53;;;;;;;2.70;1.20;;;17.50;60.40;;;;;;5239328;28;20220;-70
2022/03/28 13:05:45;;;;;;;2.73;1.43;;;17.50;60.30;;;;;;5242623;28;20224;-68
2022/03/28 13:08:38;;;;;;;3.23;1.47;;;17.50;60.40;;;;;;5242743;28;20657;-68
2022/03/28 13:11:33;;;;;;;1.67;0.90;;;17.50;61.00;;;;;;5243370;28;20766;-69
2022/03/28 13:14:26;;;;;;;2.07;1.30;;;17.50;60.40;;;;;;5243356;28;20277;-69
2022/03/28 13:17:20;;;;;;;2.47;1.27;;;17.50;60.40;;;;;;5242476;28;20207;-68
2022/03/28 13:20:18;;;;;;;1.90;1.20;;;17.50;60.40;;;;;;5242718;28;20196;-69
2022/03/28 13:23:21;;;;;;;5.10;1.30;;;17.50;60.40;;;;;;5243866;28;20220;-65
2022/03/28 13:26:15;;;;;;;1.63;0.90;;;17.50;60.30;;;;;;5244163;28;20556;-65
2022/03/28 13:29:20;;;;;;;1.57;1.10;;;17.50;60.40;;;;;;5243316;28;20211;-67
2022/03/28 13:32:12;;;;;;;1.67;1.20;;;17.50;60.30;;;;;;5240787;28;20602;-65
2022/03/28 13:35:04;;;;;;;1.50;1.10;;;17.50;60.20;;;;;;5242887;28;20195;-67
2022/03/28 13:37:58;;;;;;;1.93;1.17;;;17.50;60.20;;;;;;5242864;28;20195;-66
2022/03/28 13:40:53;;;;;;;1.37;0.80;;;17.50;60.10;;;;;;5242998;28;20201;-67
2022/03/28 13:43:45;;;;;;;1.43;1.20;;;17.50;60.20;;;;;;5242611;28;20232;-66
2022/03/28 13:46:39;;;;;;;1.50;0.90;;;17.50;60.20;;;;;;5243775;28;20204;-67
2022/03/28 13:49:31;;;;;;;2.77;1.20;;;17.50;60.20;;;;;;5243986;28;20211;-67
2022/03/28 13:52:23;;;;;;;2.07;1.20;;;17.40;60.30;;;;;;5243429;28;20803;-67
2022/03/28 13:55:17;;;;;;;1.70;0.90;;;17.50;60.30;;;;;;5242764;28;20188;-67
2022/03/28 13:58:10;;;;;;;1.90;1.00;;;17.50;60.40;;;;;;5242569;28;20200;-68
2022/03/28 14:01:02;;;;;;;5.30;1.20;;;17.50;60.40;;;;;;5242495;28;20203;-67
2022/03/28 14:03:57;;;;;;;2.57;1.13;;;17.50;60.40;;;;;;5243469;28;20291;-69
2022/03/28 14:06:49;;;;;;;0.83;0.70;;;17.50;60.40;;;;;;5236444;28;20200;-68
2022/03/28 14:09:41;;;;;;;2.10;1.40;;;17.50;60.40;;;;;;5242608;28;20196;-68
2022/03/28 14:12:35;;;;;;;1.27;0.70;;;17.40;60.40;;;;;;5242522;28;20717;-68
2022/03/28 14:15:27;;;;;;;2.00;0.90;;;17.50;60.40;;;;;;5242131;28;20197;-66
2022/03/28 14:18:21;;;;;;;1.30;1.10;;;17.50;60.50;;;;;;5242003;28;20200;-68
2022/03/28 14:21:16;;;;;;;3.53;0.93;;;17.40;60.40;;;;;;5243336;28;20205;-68
2022/03/28 14:24:09;;;;;;;1.80;0.83;;;17.50;60.50;;;;;;5242268;28;20731;-68
2022/03/28 14:27:01;;;;;;;2.30;1.10;;;17.50;60.50;;;;;;5244150;28;20891;-67
2022/03/28 14:29:53;;;;;;;1.17;0.80;;;17.50;60.50;;;;;;5242376;28;20274;-65
2022/03/28 14:32:46;;;;;;;1.20;0.80;;;17.50;60.50;;;;;;5241572;28;20217;-65
2022/03/28 14:35:38;;;;;;;1.80;0.87;;;17.50;60.50;;;;;;5242164;28;20226;-65
2022/03/28 14:38:34;;;;;;;2.17;0.80;;;17.50;60.60;;;;;;5244657;28;20246;-64
2022/03/28 14:41:26;;;;;;;1.27;0.70;;;17.50;60.60;;;;;;5232887;28;20208;-65
2022/03/28 14:44:18;;;;;;;1.73;0.80;;;17.50;60.60;;;;;;5221144;28;20602;-66
2022/03/28 14:47:11;;;;;;;1.53;0.80;;;17.50;60.70;;;;;;5222148;28;20201;-65
2022/03/28 14:50:03;;;;;;;2.00;1.00;;;17.50;60.70;;;;;;5226106;28;20544;-66
2022/03/28 14:52:56;;;;;;;1.60;1.00;;;17.50;60.70;;;;;;5242121;28;20217;-67
2022/03/28 14:55:50;;;;;;;1.03;0.80;;;17.50;60.80;;;;;;5241151;28;20231;-68
2022/03/28 14:58:42;;;;;;;0.77;0.53;;;17.50;60.90;;;;;;5243267;28;20200;-66